createdAt,value
2018-04-22T00:01:00.488Z,73.10
2018-04-22T00:02:04.861Z,72.00
2018-04-22T00:03:09.875Z,72.40
2018-04-22T00:04:14.152Z,70.90
2018-04-22T00:05:19.137Z,70.20
2018-04-22T00:06:23.374Z,70.20
2018-04-22T00:07:28.462Z,71.10
2018-04-22T00:08:32.711Z,71.10
2018-04-22T00:09:38.088Z,69.60
2018-04-22T00:10:42.353Z,69.60
2018-04-22T00:11:47.667Z,70.60
2018-04-22T00:12:51.898Z,70.60
2018-04-22T00:14:10.789Z,69.20
2018-04-22T00:15:15.069Z,70.70
2018-04-22T00:16:19.421Z,71.20
2018-04-22T00:17:23.474Z,71.00
2018-04-22T00:18:27.580Z,70.90
2018-04-22T00:19:32.351Z,70.80
2018-04-22T00:20:36.773Z,70.60
2018-04-22T00:21:42.208Z,71.00
2018-04-22T00:22:47.602Z,71.50
2018-04-22T00:23:52.486Z,70.70
2018-04-22T00:24:57.006Z,70.40
2018-04-22T00:26:01.898Z,71.00
2018-04-22T00:27:09.843Z,69.80
2018-04-22T00:28:14.532Z,69.80
2018-04-22T00:29:18.766Z,69.10
2018-04-22T00:30:22.996Z,69.20
2018-04-22T00:31:27.258Z,68.60
2018-04-22T00:32:31.817Z,68.30
2018-04-22T00:33:35.864Z,67.90
2018-04-22T00:34:40.011Z,68.80
2018-04-22T00:35:44.132Z,68.50
2018-04-22T00:36:48.182Z,68.50
2018-04-22T00:37:52.319Z,68.30
2018-04-22T00:38:56.727Z,68.50
2018-04-22T00:40:00.952Z,69.00
2018-04-22T00:41:07.437Z,67.10
2018-04-22T00:42:11.933Z,67.00
2018-04-22T00:43:16.935Z,65.90
2018-04-22T00:44:20.989Z,65.80
2018-04-22T00:45:25.563Z,65.60
2018-04-22T00:46:29.620Z,66.00
2018-04-22T00:47:33.806Z,65.60
2018-04-22T00:48:37.883Z,65.50
2018-04-22T00:49:42.694Z,65.40
2018-04-22T00:50:47.583Z,64.00
2018-04-22T00:51:52.161Z,64.00
2018-04-22T00:52:56.352Z,63.70
2018-04-22T00:54:10.186Z,64.20
2018-04-22T00:55:14.251Z,64.20
2018-04-22T00:56:18.546Z,64.50
2018-04-22T00:57:22.771Z,65.10
2018-04-22T00:58:28.159Z,66.00
2018-04-22T00:59:32.427Z,66.00
2018-04-22T01:00:37.423Z,66.70
2018-04-22T01:01:41.699Z,66.70
2018-04-22T01:02:45.946Z,67.30
2018-04-22T01:03:50.143Z,67.00
2018-04-22T01:04:54.427Z,67.40
2018-04-22T01:05:58.679Z,67.00
2018-04-22T01:07:03.720Z,67.10
2018-04-22T01:08:07.974Z,67.10
2018-04-22T01:09:12.188Z,67.20
2018-04-22T01:10:16.883Z,66.60
2018-04-22T01:11:20.930Z,66.60
2018-04-22T01:12:25.762Z,66.50
2018-04-22T01:13:29.852Z,66.50
2018-04-22T01:14:34.703Z,66.90
2018-04-22T01:15:38.735Z,66.90
2018-04-22T01:16:43.081Z,66.90
2018-04-22T01:17:47.878Z,66.80
2018-04-22T01:18:52.029Z,66.80
2018-04-22T01:19:56.182Z,66.80
2018-04-22T01:21:00.227Z,67.10
2018-04-22T01:22:04.303Z,67.60
2018-04-22T01:23:09.091Z,68.10
2018-04-22T01:24:13.160Z,68.10
2018-04-22T01:25:17.215Z,68.20
2018-04-22T01:26:21.258Z,68.40
2018-04-22T01:27:25.294Z,68.30
2018-04-22T01:28:29.324Z,68.50
2018-04-22T01:29:33.569Z,68.70
2018-04-22T01:30:37.797Z,68.70
2018-04-22T01:31:41.991Z,68.90
2018-04-22T01:32:46.179Z,68.80
2018-04-22T01:33:50.379Z,68.80
2018-04-22T01:34:54.626Z,69.00
2018-04-22T01:35:58.838Z,69.00
2018-04-22T01:37:02.894Z,69.00
2018-04-22T01:38:07.022Z,69.00
2018-04-22T01:39:11.035Z,69.00
2018-04-22T01:40:15.212Z,69.00
2018-04-22T01:41:19.582Z,69.10
2018-04-22T01:42:23.779Z,69.10
2018-04-22T01:43:28.002Z,69.30
2018-04-22T01:44:33.016Z,69.30
2018-04-22T01:45:37.995Z,69.40
2018-04-22T01:46:42.707Z,68.70
2018-04-22T01:47:46.922Z,69.30
2018-04-22T01:48:51.143Z,69.50
2018-04-22T01:49:55.210Z,69.50
2018-04-22T01:50:59.252Z,69.50
2018-04-22T01:52:03.469Z,69.50
2018-04-22T01:53:07.507Z,69.50
2018-04-22T01:54:11.651Z,69.60
2018-04-22T01:55:15.691Z,69.60
2018-04-22T01:56:20.548Z,69.60
2018-04-22T01:57:24.711Z,69.60
2018-04-22T01:58:29.766Z,69.80
2018-04-22T01:59:33.998Z,69.80
2018-04-22T02:00:38.210Z,69.80
2018-04-22T02:01:42.427Z,69.90
2018-04-22T02:02:47.566Z,70.00
2018-04-22T02:03:52.348Z,70.00
2018-04-22T02:04:56.647Z,69.90
2018-04-22T02:06:00.715Z,70.00
2018-04-22T02:07:04.742Z,70.00
2018-04-22T02:08:08.787Z,70.00
2018-04-22T02:09:12.998Z,70.00
2018-04-22T02:10:17.206Z,70.00
2018-04-22T02:11:21.694Z,70.00
2018-04-22T02:12:25.910Z,70.10
2018-04-22T02:13:30.389Z,70.10
2018-04-22T02:14:34.587Z,70.10
2018-04-22T02:15:38.785Z,70.10
2018-04-22T02:16:42.998Z,70.10
2018-04-22T02:17:47.181Z,70.20
2018-04-22T02:18:52.183Z,70.10
2018-04-22T02:19:57.162Z,70.10
2018-04-22T02:21:01.376Z,70.10
2018-04-22T02:22:05.604Z,70.10
2018-04-22T02:23:09.806Z,70.10
2018-04-22T02:24:14.010Z,70.10
2018-04-22T02:25:18.198Z,70.10
2018-04-22T02:26:22.372Z,70.10
2018-04-22T02:27:26.612Z,70.10
2018-04-22T02:28:30.792Z,70.10
2018-04-22T02:29:35.813Z,70.20
2018-04-22T02:30:40.145Z,70.10
2018-04-22T02:31:44.273Z,70.10
2018-04-22T02:32:49.071Z,70.20
2018-04-22T02:33:53.114Z,70.10
2018-04-22T02:34:57.123Z,70.20
2018-04-22T02:36:01.436Z,70.20
2018-04-22T02:37:05.507Z,70.20
2018-04-22T02:38:10.303Z,70.20
2018-04-22T02:39:14.486Z,70.20
2018-04-22T02:40:18.825Z,70.10
2018-04-22T02:41:22.870Z,70.10
2018-04-22T02:42:26.902Z,70.20
2018-04-22T02:43:31.011Z,70.80
2018-04-22T02:44:35.858Z,70.20
2018-04-22T02:45:40.656Z,70.10
2018-04-22T02:46:44.740Z,70.10
2018-04-22T02:47:48.775Z,70.20
2018-04-22T02:48:53.560Z,70.20
2018-04-22T02:49:57.762Z,70.20
2018-04-22T02:51:01.992Z,70.20
2018-04-22T02:52:06.370Z,70.10
2018-04-22T02:53:10.651Z,70.10
2018-04-22T02:54:14.869Z,70.10
2018-04-22T02:55:19.063Z,70.10
2018-04-22T02:56:23.237Z,70.10
2018-04-22T02:57:28.247Z,70.10
2018-04-22T02:58:32.455Z,70.10
2018-04-22T02:59:36.792Z,70.10
2018-04-22T03:00:40.836Z,70.00
2018-04-22T03:01:45.273Z,70.00
2018-04-22T03:02:49.291Z,70.00
2018-04-22T03:03:54.083Z,69.90
2018-04-22T03:04:58.082Z,70.00
2018-04-22T03:06:02.128Z,69.90
2018-04-22T03:07:06.350Z,69.90
2018-04-22T03:08:11.230Z,69.90
2018-04-22T03:09:16.166Z,69.90
2018-04-22T03:10:21.143Z,69.90
2018-04-22T03:11:25.670Z,69.90
2018-04-22T03:12:29.875Z,69.90
2018-04-22T03:13:34.043Z,69.90
2018-04-22T03:14:38.260Z,69.90
2018-04-22T03:15:42.543Z,69.90
2018-04-22T03:16:46.744Z,69.80
2018-04-22T03:17:51.102Z,69.80
2018-04-22T03:18:55.126Z,69.80
2018-04-22T03:19:59.922Z,69.80
2018-04-22T03:21:03.990Z,69.80
2018-04-22T03:22:08.012Z,69.80
2018-04-22T03:23:12.125Z,69.80
2018-04-22T03:24:16.192Z,69.60
2018-04-22T03:25:20.424Z,69.80
2018-04-22T03:26:24.479Z,69.70
2018-04-22T03:27:28.521Z,69.70
2018-04-22T03:28:32.578Z,69.60
2018-04-22T03:29:36.651Z,69.70
2018-04-22T03:30:41.466Z,69.60
2018-04-22T03:31:45.481Z,69.60
2018-04-22T03:32:50.306Z,69.60
2018-04-22T03:33:55.106Z,69.50
2018-04-22T03:34:59.140Z,69.50
2018-04-22T03:36:03.186Z,69.60
2018-04-22T03:37:07.246Z,69.60
2018-04-22T03:38:11.516Z,69.50
2018-04-22T03:39:15.701Z,69.50
2018-04-22T03:40:19.902Z,69.50
2018-04-22T03:41:24.083Z,69.50
2018-04-22T03:42:29.111Z,69.50
2018-04-22T03:43:33.328Z,69.50
2018-04-22T03:44:38.157Z,69.50
2018-04-22T03:45:42.192Z,69.40
2018-04-22T03:46:47.007Z,69.40
2018-04-22T03:47:51.801Z,69.40
2018-04-22T03:48:55.837Z,69.40
2018-04-22T03:50:00.638Z,69.40
2018-04-22T03:51:05.423Z,69.40
2018-04-22T03:52:09.442Z,69.40
2018-04-22T03:53:13.463Z,69.40
2018-04-22T03:56:15.252Z,69.30
2018-04-22T03:57:19.731Z,69.30
2018-04-22T03:58:24.016Z,69.20
2018-04-22T03:59:28.075Z,69.30
2018-04-22T04:00:32.123Z,69.20
2018-04-22T04:01:36.451Z,69.30
2018-04-22T04:02:41.363Z,69.20
2018-04-22T04:03:45.416Z,69.20
2018-04-22T04:04:49.544Z,69.20
2018-04-22T04:05:53.921Z,69.10
2018-04-22T04:06:57.997Z,69.20
2018-04-22T04:08:02.897Z,69.10
2018-04-22T04:09:07.746Z,69.40
2018-04-22T04:10:12.604Z,69.10
2018-04-22T04:11:16.883Z,69.10
2018-04-22T04:12:20.959Z,69.00
2018-04-22T04:13:26.248Z,69.00
2018-04-22T04:14:30.313Z,69.00
2018-04-22T04:15:34.387Z,69.80
2018-04-22T04:16:39.228Z,69.00
2018-04-22T04:17:44.969Z,68.90
2018-04-22T04:19:00.348Z,69.00
2018-04-22T04:20:15.384Z,68.90
2018-04-22T04:21:31.231Z,68.90
2018-04-22T04:22:49.984Z,68.90
2018-04-22T04:24:02.963Z,68.90
2018-04-22T04:27:20.939Z,68.80
2018-04-22T04:28:25.955Z,68.70
2018-04-22T04:29:30.282Z,68.80
2018-04-22T04:30:35.307Z,68.70
2018-04-22T04:31:40.443Z,68.70
2018-04-22T04:32:45.299Z,68.70
2018-04-22T04:33:49.464Z,68.70
2018-04-22T04:34:54.319Z,68.70
2018-04-22T04:35:58.390Z,68.70
2018-04-22T04:37:03.233Z,68.70
2018-04-22T04:38:07.445Z,68.70
2018-04-22T04:39:11.844Z,68.70
2018-04-22T04:40:16.148Z,68.70
2018-04-22T04:41:20.863Z,68.60
2018-04-22T04:42:25.084Z,68.60
2018-04-22T04:43:29.212Z,69.30
2018-04-22T04:44:33.304Z,68.60
2018-04-22T04:45:37.403Z,68.60
2018-04-22T04:46:41.517Z,68.60
2018-04-22T04:47:45.909Z,68.60
2018-04-22T04:48:49.992Z,68.50
2018-04-22T04:49:54.102Z,68.60
2018-04-22T04:50:58.513Z,68.50
2018-04-22T04:52:02.592Z,68.50
2018-04-22T04:53:07.616Z,68.40
2018-04-22T04:54:12.628Z,68.40
2018-04-22T04:55:17.631Z,68.50
2018-04-22T04:56:21.851Z,68.40
2018-04-22T04:57:27.167Z,68.40
2018-04-22T04:58:31.253Z,68.30
2018-04-22T04:59:35.438Z,68.30
2018-04-22T05:00:39.549Z,68.30
2018-04-22T05:01:43.754Z,68.30
2018-04-22T05:02:47.974Z,68.30
2018-04-22T05:03:52.493Z,68.30
2018-04-22T05:04:56.744Z,68.30
2018-04-22T05:06:00.971Z,68.30
2018-04-22T05:07:05.047Z,68.30
2018-04-22T05:08:09.100Z,68.40
2018-04-22T05:09:13.162Z,69.00
2018-04-22T05:10:17.503Z,68.40
2018-04-22T05:11:21.588Z,68.30
2018-04-22T05:12:25.995Z,68.30
2018-04-22T05:13:30.523Z,68.30
2018-04-22T05:14:34.980Z,68.30
2018-04-22T05:15:39.980Z,68.30
2018-04-22T05:16:44.509Z,68.30
2018-04-22T05:17:49.511Z,68.30
2018-04-22T05:18:53.823Z,68.30
2018-04-22T05:19:58.072Z,68.30
2018-04-22T05:21:02.328Z,68.30
2018-04-22T05:22:06.611Z,68.30
2018-04-22T05:23:12.231Z,68.20
2018-04-22T05:24:16.347Z,68.30
2018-04-22T05:25:20.416Z,68.30
2018-04-22T05:26:25.247Z,68.30
2018-04-22T05:27:29.333Z,68.20
2018-04-22T05:28:34.167Z,68.20
2018-04-22T05:29:38.225Z,68.20
2018-04-22T05:30:42.325Z,68.10
2018-04-22T05:31:46.475Z,68.10
2018-04-22T05:32:50.538Z,68.10
2018-04-22T05:33:54.883Z,68.20
2018-04-22T05:34:59.106Z,68.00
2018-04-22T05:36:03.344Z,68.90
2018-04-22T05:37:07.995Z,68.20
2018-04-22T05:38:12.228Z,68.00
2018-04-22T05:39:16.783Z,68.10
2018-04-22T05:40:21.547Z,68.10
2018-04-22T05:41:25.762Z,68.10
2018-04-22T05:42:30.376Z,68.00
2018-04-22T05:43:34.638Z,68.00
2018-04-22T05:44:38.887Z,68.00
2018-04-22T05:45:43.903Z,68.00
2018-04-22T05:46:47.959Z,68.00
2018-04-22T05:47:52.019Z,68.00
2018-04-22T05:48:56.523Z,68.00
2018-04-22T05:50:00.808Z,68.00
2018-04-22T05:51:05.709Z,67.90
2018-04-22T05:52:11.028Z,67.90
2018-04-22T05:53:15.122Z,67.90
2018-04-22T05:54:19.200Z,67.90
2018-04-22T05:55:23.584Z,67.90
2018-04-22T05:56:28.075Z,68.00
2018-04-22T05:57:33.084Z,68.00
2018-04-22T05:58:37.751Z,68.00
2018-04-22T05:59:41.959Z,68.00
2018-04-22T06:00:46.242Z,68.00
2018-04-22T06:01:51.477Z,68.00
2018-04-22T06:02:55.591Z,68.00
2018-04-22T06:03:59.892Z,68.00
2018-04-22T06:05:04.863Z,68.00
2018-04-22T06:06:09.986Z,67.90
2018-04-22T06:07:14.421Z,67.70
2018-04-22T06:08:19.273Z,67.90
2018-04-22T06:09:23.379Z,68.00
2018-04-22T06:10:27.483Z,67.90
2018-04-22T06:11:31.659Z,67.90
2018-04-22T06:12:36.543Z,67.90
2018-04-22T06:13:41.087Z,67.90
2018-04-22T06:14:45.924Z,67.90
2018-04-22T06:15:50.712Z,67.90
2018-04-22T06:16:55.616Z,67.90
2018-04-22T06:17:59.692Z,67.80
2018-04-22T06:19:04.291Z,67.90
2018-04-22T06:20:08.519Z,67.90
2018-04-22T06:21:12.758Z,67.90
2018-04-22T06:22:17.019Z,67.90
2018-04-22T06:23:21.248Z,67.90
2018-04-22T06:24:25.500Z,67.80
2018-04-22T06:25:30.967Z,67.90
2018-04-22T06:26:35.248Z,67.80
2018-04-22T06:27:39.468Z,67.90
2018-04-22T06:28:43.712Z,67.90
2018-04-22T06:29:47.815Z,67.90
2018-04-22T06:30:51.884Z,67.90
2018-04-22T06:31:56.350Z,67.80
2018-04-22T06:33:01.240Z,67.80
2018-04-22T06:34:05.298Z,67.80
2018-04-22T06:35:09.396Z,67.90
2018-04-22T06:36:14.228Z,67.90
2018-04-22T06:37:18.759Z,67.80
2018-04-22T06:38:23.199Z,67.90
2018-04-22T06:39:29.717Z,67.80
2018-04-22T06:40:34.120Z,67.80
2018-04-22T06:41:38.749Z,67.90
2018-04-22T06:42:43.159Z,67.70
2018-04-22T06:43:49.501Z,67.80
2018-04-22T06:44:54.220Z,67.80
2018-04-22T06:45:58.562Z,67.80
2018-04-22T06:47:03.247Z,67.70
2018-04-22T06:48:07.887Z,67.80
2018-04-22T06:49:12.334Z,67.80
2018-04-22T06:50:17.371Z,67.80
2018-04-22T06:51:21.911Z,67.70
2018-04-22T06:52:26.690Z,67.80
2018-04-22T06:53:34.746Z,67.80
2018-04-22T06:54:39.321Z,67.80
2018-04-22T06:55:44.914Z,67.90
2018-04-22T06:56:49.804Z,67.90
2018-04-22T06:57:54.447Z,67.80
2018-04-22T06:58:59.732Z,67.90
2018-04-22T07:00:04.584Z,67.80
2018-04-22T07:01:09.119Z,67.80
2018-04-22T07:02:14.555Z,67.90
2018-04-22T07:03:20.124Z,67.80
2018-04-22T07:04:24.796Z,67.70
2018-04-22T07:05:30.655Z,67.80
2018-04-22T07:06:36.099Z,67.70
2018-04-22T07:07:42.017Z,67.70
2018-04-22T07:08:47.999Z,67.70
2018-04-22T07:09:53.371Z,67.70
2018-04-22T07:10:57.779Z,67.70
2018-04-22T07:12:02.448Z,67.70
2018-04-22T07:13:07.105Z,67.60
2018-04-22T07:14:12.140Z,67.60
2018-04-22T07:15:16.699Z,67.60
2018-04-22T07:16:22.396Z,67.60
2018-04-22T07:17:26.624Z,67.60
2018-04-22T07:18:31.826Z,67.60
2018-04-22T07:19:36.412Z,67.70
2018-04-22T07:20:41.061Z,67.60
2018-04-22T07:21:45.375Z,67.60
2018-04-22T07:22:49.793Z,67.60
2018-04-22T07:23:54.657Z,67.60
2018-04-22T07:24:59.924Z,67.50
2018-04-22T07:26:04.775Z,67.50
2018-04-22T07:27:09.779Z,67.50
2018-04-22T07:28:13.901Z,67.50
2018-04-22T07:29:18.177Z,67.50
2018-04-22T07:30:22.246Z,67.50
2018-04-22T07:31:27.276Z,67.60
2018-04-22T07:32:31.458Z,67.60
2018-04-22T07:33:36.491Z,67.60
2018-04-22T07:34:41.533Z,67.50
2018-04-22T07:35:46.059Z,67.60
2018-04-22T07:36:50.327Z,67.50
2018-04-22T07:37:55.393Z,67.50
2018-04-22T07:38:59.661Z,67.50
2018-04-22T07:40:04.679Z,67.50
2018-04-22T07:41:09.767Z,67.60
2018-04-22T07:42:14.223Z,67.70
2018-04-22T07:43:20.743Z,67.60
2018-04-22T07:44:25.000Z,67.60
2018-04-22T07:45:29.116Z,67.60
2018-04-22T07:46:33.215Z,67.50
2018-04-22T07:47:37.283Z,67.50
2018-04-22T07:48:42.138Z,67.40
2018-04-22T07:49:46.392Z,67.40
2018-04-22T07:50:50.512Z,67.50
2018-04-22T07:51:54.590Z,67.40
2018-04-22T07:52:58.715Z,67.40
2018-04-22T07:54:02.951Z,67.40
2018-04-22T07:55:07.264Z,67.40
2018-04-22T07:56:11.546Z,67.40
2018-04-22T07:57:16.679Z,67.20
2018-04-22T07:58:20.933Z,67.20
2018-04-22T07:59:25.207Z,67.20
2018-04-22T08:00:29.527Z,67.20
2018-04-22T08:01:33.645Z,67.30
2018-04-22T08:02:37.756Z,67.30
2018-04-22T08:03:42.031Z,67.30
2018-04-22T08:04:46.280Z,67.20
2018-04-22T08:05:50.531Z,67.10
2018-04-22T08:06:54.759Z,67.00
2018-04-22T08:07:58.991Z,67.10
2018-04-22T08:09:03.425Z,66.90
2018-04-22T08:10:07.665Z,66.90
2018-04-22T08:11:11.932Z,66.90
2018-04-22T08:12:16.450Z,66.90
2018-04-22T08:13:21.507Z,66.80
2018-04-22T08:14:25.956Z,66.80
2018-04-22T08:15:30.346Z,66.80
2018-04-22T08:16:34.579Z,66.90
2018-04-22T08:17:38.831Z,67.00
2018-04-22T08:18:43.067Z,66.90
2018-04-22T08:19:47.311Z,66.90
2018-04-22T08:20:52.425Z,66.70
2018-04-22T08:21:56.675Z,66.60
2018-04-22T08:23:01.163Z,66.70
2018-04-22T08:24:06.091Z,66.60
2018-04-22T08:25:10.976Z,66.60
2018-04-22T08:26:15.071Z,66.50
2018-04-22T08:27:19.171Z,66.70
2018-04-22T08:28:23.775Z,66.60
2018-04-22T08:29:27.898Z,66.70
2018-04-22T08:30:32.011Z,66.60
2018-04-22T08:31:36.183Z,66.60
2018-04-22T08:32:40.451Z,66.70
2018-04-22T08:33:45.347Z,66.70
2018-04-22T08:34:49.485Z,66.60
2018-04-22T08:35:54.397Z,66.60
2018-04-22T08:36:59.346Z,66.60
2018-04-22T08:38:03.783Z,66.60
2018-04-22T08:39:08.004Z,66.50
2018-04-22T08:40:12.835Z,66.60
2018-04-22T08:41:16.943Z,66.40
2018-04-22T08:42:21.115Z,66.60
2018-04-22T08:43:25.267Z,66.60
2018-04-22T08:44:30.223Z,66.50
2018-04-22T08:45:34.287Z,66.50
2018-04-22T08:46:39.347Z,66.40
2018-04-22T08:47:43.500Z,66.40
2018-04-22T08:48:48.628Z,66.50
2018-04-22T08:49:52.869Z,66.40
2018-04-22T08:50:57.116Z,66.50
2018-04-22T08:52:01.555Z,66.60
2018-04-22T08:53:06.552Z,66.40
2018-04-22T08:54:10.800Z,66.40
2018-04-22T08:55:15.779Z,66.40
2018-04-22T08:56:20.031Z,66.40
2018-04-22T08:57:25.135Z,66.40
2018-04-22T08:58:30.139Z,66.40
2018-04-22T08:59:34.251Z,66.50
2018-04-22T09:00:38.342Z,66.50
2018-04-22T09:01:42.911Z,66.60
2018-04-22T09:02:47.297Z,66.40
2018-04-22T09:03:55.679Z,67.20
2018-04-22T09:04:59.772Z,66.30
2018-04-22T09:06:03.859Z,66.40
2018-04-22T09:07:08.239Z,66.50
2018-04-22T09:08:12.490Z,66.40
2018-04-22T09:09:16.610Z,66.50
2018-04-22T09:10:20.795Z,66.30
2018-04-22T09:11:24.986Z,66.40
2018-04-22T09:12:29.107Z,66.30
2018-04-22T09:13:33.206Z,66.20
2018-04-22T09:14:37.357Z,66.50
2018-04-22T09:15:41.480Z,66.30
2018-04-22T09:16:45.629Z,66.40
2018-04-22T09:17:50.020Z,66.20
2018-04-22T09:18:54.307Z,66.10
2018-04-22T09:19:59.021Z,66.10
2018-04-22T09:21:03.433Z,66.30
2018-04-22T09:22:07.745Z,66.30
2018-04-22T09:23:12.106Z,66.40
2018-04-22T09:24:17.204Z,66.30
2018-04-22T09:25:21.523Z,66.20
2018-04-22T09:26:26.718Z,66.30
2018-04-22T09:27:31.071Z,66.30
2018-04-22T09:28:36.164Z,66.20
2018-04-22T09:29:41.133Z,66.10
2018-04-22T09:30:45.420Z,66.30
2018-04-22T09:31:50.452Z,66.20
2018-04-22T09:32:55.528Z,66.10
2018-04-22T09:33:59.899Z,66.20
2018-04-22T09:35:04.472Z,66.20
2018-04-22T09:36:08.762Z,66.20
2018-04-22T09:37:13.106Z,66.10
2018-04-22T09:38:17.971Z,66.20
2018-04-22T09:39:22.315Z,66.20
2018-04-22T09:40:26.484Z,66.20
2018-04-22T09:41:30.671Z,66.20
2018-04-22T09:42:34.766Z,66.20
2018-04-22T09:43:39.671Z,66.00
2018-04-22T09:44:44.628Z,66.10
2018-04-22T09:45:48.806Z,66.00
2018-04-22T09:46:53.688Z,65.90
2018-04-22T09:47:58.271Z,65.90
2018-04-22T09:49:08.368Z,66.10
2018-04-22T09:50:12.650Z,66.20
2018-04-22T09:51:17.015Z,66.20
2018-04-22T09:52:21.263Z,66.20
2018-04-22T09:53:25.568Z,66.20
2018-04-22T09:54:30.009Z,66.00
2018-04-22T09:55:34.900Z,66.00
2018-04-22T09:56:39.037Z,65.90
2018-04-22T09:57:43.144Z,66.00
2018-04-22T09:58:48.281Z,66.10
2018-04-22T09:59:53.804Z,66.10
2018-04-22T10:01:00.896Z,66.20
2018-04-22T10:02:09.425Z,66.20
2018-04-22T10:03:13.715Z,66.00
2018-04-22T10:04:18.085Z,65.90
2018-04-22T10:05:23.843Z,65.90
2018-04-22T10:06:28.707Z,66.00
2018-04-22T10:07:32.847Z,65.90
2018-04-22T10:08:36.982Z,66.00
2018-04-22T10:09:41.915Z,66.00
2018-04-22T10:10:45.988Z,65.90
2018-04-22T10:11:50.050Z,66.00
2018-04-22T10:12:54.228Z,65.90
2018-04-22T10:13:58.307Z,66.00
2018-04-22T10:15:03.229Z,66.00
2018-04-22T10:16:08.187Z,66.00
2018-04-22T10:17:12.336Z,66.00
2018-04-22T10:18:17.391Z,65.80
2018-04-22T10:19:21.533Z,65.90
2018-04-22T10:20:25.760Z,65.80
2018-04-22T10:21:30.115Z,65.80
2018-04-22T10:22:35.132Z,66.00
2018-04-22T10:23:39.227Z,65.90
2018-04-22T10:24:43.384Z,66.00
2018-04-22T10:25:47.531Z,65.90
2018-04-22T10:26:52.387Z,65.90
2018-04-22T10:27:57.068Z,65.90
2018-04-22T10:29:01.417Z,65.90
2018-04-22T10:30:05.720Z,66.00
2018-04-22T10:31:09.992Z,66.00
2018-04-22T10:32:15.069Z,66.00
2018-04-22T10:33:19.377Z,66.00
2018-04-22T10:34:24.090Z,66.00
2018-04-22T10:35:28.377Z,66.00
2018-04-22T10:36:32.571Z,66.10
2018-04-22T10:37:36.712Z,66.00
2018-04-22T10:38:40.954Z,66.00
2018-04-22T10:39:45.882Z,66.10
2018-04-22T10:40:51.180Z,66.10
2018-04-22T10:41:55.414Z,66.10
2018-04-22T10:43:00.399Z,66.80
2018-04-22T10:44:04.567Z,66.10
2018-04-22T10:45:09.534Z,66.00
2018-04-22T10:46:13.701Z,66.70
2018-04-22T10:47:18.152Z,66.70
2018-04-22T10:48:22.524Z,66.00
2018-04-22T10:49:26.799Z,66.00
2018-04-22T10:50:31.090Z,66.00
2018-04-22T10:51:36.028Z,66.10
2018-04-22T10:52:40.396Z,66.00
2018-04-22T10:53:44.920Z,66.00
2018-04-22T10:54:49.486Z,66.00
2018-04-22T10:55:53.784Z,66.00
2018-04-22T10:56:57.863Z,66.00
2018-04-22T10:58:03.321Z,65.90
2018-04-22T10:59:08.180Z,65.90
2018-04-22T11:00:12.295Z,65.90
2018-04-22T11:01:16.412Z,65.90
2018-04-22T11:02:21.423Z,65.90
2018-04-22T11:03:25.547Z,65.90
2018-04-22T11:04:30.713Z,65.80
2018-04-22T11:05:34.841Z,65.80
2018-04-22T11:06:39.081Z,65.60
2018-04-22T11:07:43.937Z,64.70
2018-04-22T11:08:48.180Z,65.60
2018-04-22T11:09:52.296Z,65.60
2018-04-22T11:10:57.167Z,65.70
2018-04-22T11:12:01.245Z,65.60
2018-04-22T11:13:05.343Z,65.70
2018-04-22T11:14:10.326Z,65.60
2018-04-22T11:15:14.471Z,65.60
2018-04-22T11:16:19.779Z,65.70
2018-04-22T11:17:23.878Z,65.70
2018-04-22T11:18:28.063Z,65.60
2018-04-22T11:19:32.183Z,65.60
2018-04-22T11:20:36.282Z,65.60
2018-04-22T11:21:40.382Z,65.10
2018-04-22T11:22:44.915Z,65.60
2018-04-22T11:23:49.783Z,66.30
2018-04-22T11:24:53.984Z,65.60
2018-04-22T11:25:58.137Z,65.70
2018-04-22T11:27:02.468Z,65.60
2018-04-22T11:28:07.809Z,65.60
2018-04-22T11:29:12.129Z,65.60
2018-04-22T11:30:16.254Z,65.60
2018-04-22T11:31:20.499Z,65.70
2018-04-22T11:32:25.424Z,65.60
2018-04-22T11:33:30.395Z,65.70
2018-04-22T11:34:35.272Z,65.60
2018-04-22T11:35:39.422Z,65.60
2018-04-22T11:36:43.694Z,65.60
2018-04-22T11:37:47.843Z,65.60
2018-04-22T11:38:52.011Z,65.60
2018-04-22T11:39:56.157Z,65.60
2018-04-22T11:41:00.602Z,65.60
2018-04-22T11:42:05.668Z,65.70
2018-04-22T11:43:10.623Z,65.60
2018-04-22T11:44:14.942Z,65.60
2018-04-22T11:45:19.223Z,65.60
2018-04-22T11:46:23.962Z,65.60
2018-04-22T11:47:28.241Z,65.60
2018-04-22T11:48:32.521Z,65.70
2018-04-22T11:49:37.580Z,65.70
2018-04-22T11:50:41.827Z,65.60
2018-04-22T11:51:46.827Z,65.70
2018-04-22T11:52:51.494Z,65.60
2018-04-22T11:53:55.960Z,65.80
2018-04-22T11:55:01.089Z,65.80
2018-04-22T11:56:06.171Z,65.70
2018-04-22T11:57:10.801Z,65.70
2018-04-22T11:58:16.683Z,65.90
2018-04-22T11:59:22.003Z,65.90
2018-04-22T12:00:27.728Z,65.70
2018-04-22T12:01:31.831Z,65.80
2018-04-22T12:02:35.929Z,65.80
2018-04-22T12:03:40.096Z,65.80
2018-04-22T12:04:44.886Z,65.80
2018-04-22T12:05:49.765Z,65.70
2018-04-22T12:06:54.127Z,65.70
2018-04-22T12:07:58.408Z,65.70
2018-04-22T12:09:02.768Z,65.70
2018-04-22T12:10:06.979Z,65.70
2018-04-22T12:11:11.584Z,65.70
2018-04-22T12:12:15.688Z,65.70
2018-04-22T12:13:19.936Z,65.70
2018-04-22T12:14:24.199Z,65.70
2018-04-22T12:15:28.459Z,65.80
2018-04-22T12:16:33.371Z,65.80
2018-04-22T12:17:37.712Z,65.10
2018-04-22T12:18:41.866Z,65.70
2018-04-22T12:19:46.021Z,65.70
2018-04-22T12:20:50.167Z,65.70
2018-04-22T12:21:54.488Z,65.80
2018-04-22T12:22:59.001Z,65.60
2018-04-22T12:24:04.470Z,65.70
2018-04-22T12:25:09.013Z,65.50
2018-04-22T12:26:13.101Z,65.80
2018-04-22T12:27:18.045Z,66.50
2018-04-22T12:28:22.185Z,65.70
2018-04-22T12:29:26.704Z,65.90
2018-04-22T12:30:31.232Z,65.90
2018-04-22T12:31:37.119Z,65.30
2018-04-22T12:32:41.429Z,65.30
2018-04-22T12:34:29.604Z,65.60
2018-04-22T12:35:34.356Z,65.60
2018-04-22T12:36:39.496Z,65.40
2018-04-22T12:37:44.259Z,65.40
2018-04-22T12:38:48.592Z,65.40
2018-04-22T12:39:53.295Z,65.50
2018-04-22T12:40:58.803Z,65.50
2018-04-22T12:42:03.471Z,65.50
2018-04-22T12:43:07.876Z,65.60
2018-04-22T12:44:12.155Z,65.60
2018-04-22T12:45:16.764Z,65.60
2018-04-22T12:46:20.964Z,65.60
2018-04-22T12:47:25.466Z,65.60
2018-04-22T12:48:29.569Z,65.80
2018-04-22T12:49:33.712Z,65.60
2018-04-22T12:50:38.589Z,65.50
2018-04-22T12:51:42.943Z,65.60
2018-04-22T12:52:48.400Z,65.70
2018-04-22T12:53:52.973Z,65.60
2018-04-22T12:54:57.251Z,65.60
2018-04-22T12:56:01.515Z,65.60
2018-04-22T12:57:05.923Z,65.50
2018-04-22T12:58:10.969Z,65.50
2018-04-22T12:59:15.281Z,65.50
2018-04-22T13:00:19.584Z,65.40
2018-04-22T13:01:23.819Z,65.30
2018-04-22T13:02:28.175Z,65.30
2018-04-22T13:03:32.493Z,65.30
2018-04-22T13:04:36.939Z,65.30
2018-04-22T13:05:41.288Z,65.30
2018-04-22T13:06:45.587Z,65.30
2018-04-22T13:07:50.614Z,65.20
2018-04-22T13:08:55.637Z,65.20
2018-04-22T13:10:00.707Z,65.20
2018-04-22T13:11:05.040Z,65.20
2018-04-22T13:12:09.476Z,65.10
2018-04-22T13:13:14.708Z,65.10
2018-04-22T13:14:19.868Z,65.10
2018-04-22T13:15:25.489Z,65.10
2018-04-22T13:16:29.785Z,65.10
2018-04-22T13:17:34.809Z,65.10
2018-04-22T13:18:39.843Z,65.00
2018-04-22T13:19:44.951Z,64.90
2018-04-22T13:20:50.324Z,64.80
2018-04-22T13:21:55.234Z,64.80
2018-04-22T13:23:00.537Z,64.70
2018-04-22T13:24:04.932Z,64.60
2018-04-22T13:25:09.069Z,64.60
2018-04-22T13:26:14.104Z,64.70
2018-04-22T13:27:20.264Z,64.70
2018-04-22T13:28:24.342Z,64.70
2018-04-22T13:29:29.361Z,64.90
2018-04-22T13:30:36.052Z,65.20
2018-04-22T13:31:40.493Z,65.20
2018-04-22T13:32:44.916Z,65.50
2018-04-22T13:33:49.647Z,65.60
2018-04-22T13:34:53.929Z,65.80
2018-04-22T13:36:00.271Z,65.90
2018-04-22T13:37:18.996Z,66.00
2018-04-22T13:38:31.307Z,66.00
2018-04-22T13:39:49.102Z,66.00
2018-04-22T13:40:54.861Z,66.00
2018-04-22T13:42:01.408Z,66.00
2018-04-22T13:43:06.072Z,66.00
2018-04-22T13:44:10.534Z,66.10
2018-04-22T13:45:17.123Z,66.10
2018-04-22T13:46:22.001Z,66.90
2018-04-22T13:47:28.194Z,66.30
2018-04-22T13:48:32.375Z,66.30
2018-04-22T13:49:36.751Z,66.30
2018-04-22T13:50:43.366Z,66.30
2018-04-22T13:51:53.282Z,66.30
2018-04-22T13:53:03.304Z,66.50
2018-04-22T13:54:10.725Z,67.90
2018-04-22T13:55:15.335Z,67.70
2018-04-22T13:56:21.912Z,68.70
2018-04-22T13:57:27.593Z,68.60
2018-04-22T13:58:32.879Z,69.20